sensor_id;sensor_type;location;lat;lon;timestamp;temperature;humidity
52895;DHT22;38759;53.396;6.722;2023-04-06T00:00:57;2.50;99.90
52895;DHT22;38759;53.396;6.722;2023-04-06T00:03:23;2.40;99.90
52895;DHT22;38759;53.396;6.722;2023-04-06T00:05:49;2.40;99.90
52895;DHT22;38759;53.396;6.722;2023-04-06T00:08:15;2.40;99.90
52895;DHT22;38759;53.396;6.722;2023-04-06T00:10:41;2.30;99.90
52895;DHT22;38759;53.396;6.722;2023-04-06T00:13:07;2.30;99.90
52895;DHT22;38759;53.396;6.722;2023-04-06T00:15:33;2.30;99.90
52895;DHT22;38759;53.396;6.722;2023-04-06T00:18:00;2.20;99.90
52895;DHT22;38759;53.396;6.722;2023-04-06T00:20:25;2.20;99.90
52895;DHT22;38759;53.396;6.722;2023-04-06T00:22:51;2.20;99.90
52895;DHT22;38759;53.396;6.722;2023-04-06T00:25:17;2.10;99.90
52895;DHT22;38759;53.396;6.722;2023-04-06T00:27:43;2.10;99.90
52895;DHT22;38759;53.396;6.722;2023-04-06T00:30:09;2.10;99.90
52895;DHT22;38759;53.396;6.722;2023-04-06T00:32:35;2.00;99.90
52895;DHT22;38759;53.396;6.722;2023-04-06T00:35:05;2.00;99.90
52895;DHT22;38759;53.396;6.722;2023-04-06T00:37:31;2.00;99.90
52895;DHT22;38759;53.396;6.722;2023-04-06T00:39:58;2.00;99.90
52895;DHT22;38759;53.396;6.722;2023-04-06T00:42:24;1.90;99.90
52895;DHT22;38759;53.396;6.722;2023-04-06T00:44:57;1.90;99.90
52895;DHT22;38759;53.396;6.722;2023-04-06T00:47:24;1.90;99.90
52895;DHT22;38759;53.396;6.722;2023-04-06T00:49:56;1.90;99.90
52895;DHT22;38759;53.396;6.722;2023-04-06T00:52:22;1.90;99.90
52895;DHT22;38759;53.396;6.722;2023-04-06T00:54:48;1.80;99.90
52895;DHT22;38759;53.396;6.722;2023-04-06T00:57:15;1.80;99.90
52895;DHT22;38759;53.396;6.722;2023-04-06T00:59:41;1.80;99.90
52895;DHT22;38759;53.396;6.722;2023-04-06T01:02:08;1.70;99.90
52895;DHT22;38759;53.396;6.722;2023-04-06T01:04:34;1.70;99.90
52895;DHT22;38759;53.396;6.722;2023-04-06T01:07:00;1.70;99.90
52895;DHT22;38759;53.396;6.722;2023-04-06T01:09:29;1.70;99.90
52895;DHT22;38759;53.396;6.722;2023-04-06T01:11:56;1.70;99.90
52895;DHT22;38759;53.396;6.722;2023-04-06T01:14:23;1.70;99.90
52895;DHT22;38759;53.396;6.722;2023-04-06T01:16:49;1.70;99.90
52895;DHT22;38759;53.396;6.722;2023-04-06T01:19:14;1.70;99.90
52895;DHT22;38759;53.396;6.722;2023-04-06T01:21:41;1.60;99.90
52895;DHT22;38759;53.396;6.722;2023-04-06T01:24:08;1.60;99.90
52895;DHT22;38759;53.396;6.722;2023-04-06T01:26:34;1.60;99.90
52895;DHT22;38759;53.396;6.722;2023-04-06T01:29:01;1.60;99.90
52895;DHT22;38759;53.396;6.722;2023-04-06T01:31:27;1.60;99.90
52895;DHT22;38759;53.396;6.722;2023-04-06T01:33:53;1.70;99.90
52895;DHT22;38759;53.396;6.722;2023-04-06T01:36:19;1.60;99.90
52895;DHT22;38759;53.396;6.722;2023-04-06T01:38:45;1.50;99.90
52895;DHT22;38759;53.396;6.722;2023-04-06T01:41:11;1.60;99.90
52895;DHT22;38759;53.396;6.722;2023-04-06T01:43:37;1.60;99.90
52895;DHT22;38759;53.396;6.722;2023-04-06T01:46:03;1.70;99.90
52895;DHT22;38759;53.396;6.722;2023-04-06T01:48:29;1.50;99.90
52895;DHT22;38759;53.396;6.722;2023-04-06T01:50:55;1.50;99.90
52895;DHT22;38759;53.396;6.722;2023-04-06T01:53:21;1.50;99.90
52895;DHT22;38759;53.396;6.722;2023-04-06T01:55:46;1.40;99.90
52895;DHT22;38759;53.396;6.722;2023-04-06T01:58:13;1.50;99.90
52895;DHT22;38759;53.396;6.722;2023-04-06T02:00:39;1.50;99.90
52895;DHT22;38759;53.396;6.722;2023-04-06T02:03:05;1.50;99.90
52895;DHT22;38759;53.396;6.722;2023-04-06T02:05:31;1.50;99.90
52895;DHT22;38759;53.396;6.722;2023-04-06T02:07:58;1.60;99.90
52895;DHT22;38759;53.396;6.722;2023-04-06T02:10:24;1.50;99.90
52895;DHT22;38759;53.396;6.722;2023-04-06T02:12:50;1.40;99.90
52895;DHT22;38759;53.396;6.722;2023-04-06T02:15:16;1.40;99.90
52895;DHT22;38759;53.396;6.722;2023-04-06T02:17:42;1.40;99.90
52895;DHT22;38759;53.396;6.722;2023-04-06T02:20:08;1.40;99.90
52895;DHT22;38759;53.396;6.722;2023-04-06T02:22:35;1.40;99.90
52895;DHT22;38759;53.396;6.722;2023-04-06T02:25:01;1.40;99.90
52895;DHT22;38759;53.396;6.722;2023-04-06T02:27:27;1.40;99.90
52895;DHT22;38759;53.396;6.722;2023-04-06T02:29:52;1.40;99.90
52895;DHT22;38759;53.396;6.722;2023-04-06T02:32:18;1.40;99.90
52895;DHT22;38759;53.396;6.722;2023-04-06T02:34:44;1.40;99.90
52895;DHT22;38759;53.396;6.722;2023-04-06T02:37:09;1.30;99.90
52895;DHT22;38759;53.396;6.722;2023-04-06T02:39:35;1.30;99.90
52895;DHT22;38759;53.396;6.722;2023-04-06T02:42:01;1.30;99.90
52895;DHT22;38759;53.396;6.722;2023-04-06T02:44:26;1.30;99.90
52895;DHT22;38759;53.396;6.722;2023-04-06T02:46:52;1.20;99.90
52895;DHT22;38759;53.396;6.722;2023-04-06T02:49:18;1.30;99.90
52895;DHT22;38759;53.396;6.722;2023-04-06T02:51:44;1.20;99.90
52895;DHT22;38759;53.396;6.722;2023-04-06T02:54:09;1.20;99.90
52895;DHT22;38759;53.396;6.722;2023-04-06T02:56:35;1.20;99.90
52895;DHT22;38759;53.396;6.722;2023-04-06T02:59:01;1.20;99.90
52895;DHT22;38759;53.396;6.722;2023-04-06T03:01:26;1.20;99.90
52895;DHT22;38759;53.396;6.722;2023-04-06T03:03:52;1.10;99.90
52895;DHT22;38759;53.396;6.722;2023-04-06T03:06:18;1.20;99.90
52895;DHT22;38759;53.396;6.722;2023-04-06T03:08:43;1.20;99.90
52895;DHT22;38759;53.396;6.722;2023-04-06T03:11:09;1.10;99.90
52895;DHT22;38759;53.396;6.722;2023-04-06T03:13:36;1.10;99.90
52895;DHT22;38759;53.396;6.722;2023-04-06T03:16:06;1.20;99.90
52895;DHT22;38759;53.396;6.722;2023-04-06T03:18:32;1.10;99.90
52895;DHT22;38759;53.396;6.722;2023-04-06T03:20:58;1.10;99.90
52895;DHT22;38759;53.396;6.722;2023-04-06T03:23:25;1.00;99.90
52895;DHT22;38759;53.396;6.722;2023-04-06T03:25:51;1.00;99.90
52895;DHT22;38759;53.396;6.722;2023-04-06T03:28:17;1.00;99.90
52895;DHT22;38759;53.396;6.722;2023-04-06T03:30:42;0.90;99.90
52895;DHT22;38759;53.396;6.722;2023-04-06T03:33:08;1.00;99.90
52895;DHT22;38759;53.396;6.722;2023-04-06T03:35:34;0.90;99.90
52895;DHT22;38759;53.396;6.722;2023-04-06T03:37:59;0.90;99.90
52895;DHT22;38759;53.396;6.722;2023-04-06T03:40:25;0.80;99.90
52895;DHT22;38759;53.396;6.722;2023-04-06T03:42:51;0.80;99.90
52895;DHT22;38759;53.396;6.722;2023-04-06T03:45:16;0.80;99.90
52895;DHT22;38759;53.396;6.722;2023-04-06T03:47:42;0.80;99.90
52895;DHT22;38759;53.396;6.722;2023-04-06T03:50:08;0.80;99.90
52895;DHT22;38759;53.396;6.722;2023-04-06T03:52:35;0.80;99.90
52895;DHT22;38759;53.396;6.722;2023-04-06T03:55:02;0.80;99.90
52895;DHT22;38759;53.396;6.722;2023-04-06T03:57:27;0.70;99.90
52895;DHT22;38759;53.396;6.722;2023-04-06T03:59:53;0.70;99.90
52895;DHT22;38759;53.396;6.722;2023-04-06T04:02:19;0.70;99.90
52895;DHT22;38759;53.396;6.722;2023-04-06T04:04:44;0.90;99.90
52895;DHT22;38759;53.396;6.722;2023-04-06T04:07:10;0.70;99.90
52895;DHT22;38759;53.396;6.722;2023-04-06T04:09:36;0.70;99.90
52895;DHT22;38759;53.396;6.722;2023-04-06T04:12:02;0.70;99.90
52895;DHT22;38759;53.396;6.722;2023-04-06T04:14:28;0.70;99.90
52895;DHT22;38759;53.396;6.722;2023-04-06T04:16:54;0.70;99.90
52895;DHT22;38759;53.396;6.722;2023-04-06T04:19:19;0.70;99.90
52895;DHT22;38759;53.396;6.722;2023-04-06T04:21:46;0.70;99.90
52895;DHT22;38759;53.396;6.722;2023-04-06T04:24:12;0.70;99.90
52895;DHT22;38759;53.396;6.722;2023-04-06T04:26:39;0.70;99.90
52895;DHT22;38759;53.396;6.722;2023-04-06T04:29:05;0.60;99.90
52895;DHT22;38759;53.396;6.722;2023-04-06T04:31:31;0.60;99.90
52895;DHT22;38759;53.396;6.722;2023-04-06T04:33:57;0.60;99.90
52895;DHT22;38759;53.396;6.722;2023-04-06T04:36:23;0.60;99.90
52895;DHT22;38759;53.396;6.722;2023-04-06T04:38:51;0.60;99.90
52895;DHT22;38759;53.396;6.722;2023-04-06T04:41:17;0.60;99.90
52895;DHT22;38759;53.396;6.722;2023-04-06T04:43:43;0.50;99.90
52895;DHT22;38759;53.396;6.722;2023-04-06T04:46:09;0.50;99.90
52895;DHT22;38759;53.396;6.722;2023-04-06T04:48:34;0.50;99.90
52895;DHT22;38759;53.396;6.722;2023-04-06T04:51:00;0.50;99.90
52895;DHT22;38759;53.396;6.722;2023-04-06T04:53:26;0.60;99.90
52895;DHT22;38759;53.396;6.722;2023-04-06T04:55:52;0.50;99.90
52895;DHT22;38759;53.396;6.722;2023-04-06T04:58:17;0.50;99.90
52895;DHT22;38759;53.396;6.722;2023-04-06T05:00:45;0.50;99.90
52895;DHT22;38759;53.396;6.722;2023-04-06T05:03:18;0.50;99.90
52895;DHT22;38759;53.396;6.722;2023-04-06T05:05:45;0.60;99.90
52895;DHT22;38759;53.396;6.722;2023-04-06T05:08:12;0.50;99.90
52895;DHT22;38759;53.396;6.722;2023-04-06T05:10:37;0.60;99.90
52895;DHT22;38759;53.396;6.722;2023-04-06T05:13:03;0.50;99.90
52895;DHT22;38759;53.396;6.722;2023-04-06T05:15:29;0.50;99.90
52895;DHT22;38759;53.396;6.722;2023-04-06T05:17:55;0.50;99.90
52895;DHT22;38759;53.396;6.722;2023-04-06T05:20:21;0.60;99.90
52895;DHT22;38759;53.396;6.722;2023-04-06T05:22:47;0.60;99.90
52895;DHT22;38759;53.396;6.722;2023-04-06T05:25:13;0.60;99.90
52895;DHT22;38759;53.396;6.722;2023-04-06T05:27:39;0.60;99.90
52895;DHT22;38759;53.396;6.722;2023-04-06T05:30:06;0.60;99.90
52895;DHT22;38759;53.396;6.722;2023-04-06T05:32:32;0.60;99.90
52895;DHT22;38759;53.396;6.722;2023-04-06T05:34:58;0.60;99.90
52895;DHT22;38759;53.396;6.722;2023-04-06T05:37:24;0.60;99.90
52895;DHT22;38759;53.396;6.722;2023-04-06T05:39:49;0.70;99.90
52895;DHT22;38759;53.396;6.722;2023-04-06T05:42:15;0.80;99.90
52895;DHT22;38759;53.396;6.722;2023-04-06T05:44:42;0.70;99.90
52895;DHT22;38759;53.396;6.722;2023-04-06T05:47:07;0.80;99.90
52895;DHT22;38759;53.396;6.722;2023-04-06T05:49:34;0.80;99.90
52895;DHT22;38759;53.396;6.722;2023-04-06T05:52:00;0.80;99.90
52895;DHT22;38759;53.396;6.722;2023-04-06T05:54:26;0.80;99.90
52895;DHT22;38759;53.396;6.722;2023-04-06T05:56:51;0.90;99.90
52895;DHT22;38759;53.396;6.722;2023-04-06T05:59:17;0.90;99.90
52895;DHT22;38759;53.396;6.722;2023-04-06T06:01:43;0.90;99.90
52895;DHT22;38759;53.396;6.722;2023-04-06T06:04:09;0.90;99.90
52895;DHT22;38759;53.396;6.722;2023-04-06T06:06:34;1.00;99.90
52895;DHT22;38759;53.396;6.722;2023-04-06T06:09:01;1.10;99.90
52895;DHT22;38759;53.396;6.722;2023-04-06T06:11:29;1.10;99.90
52895;DHT22;38759;53.396;6.722;2023-04-06T06:13:54;1.10;99.90
52895;DHT22;38759;53.396;6.722;2023-04-06T06:16:20;1.10;99.90
52895;DHT22;38759;53.396;6.722;2023-04-06T06:18:47;1.20;99.90
52895;DHT22;38759;53.396;6.722;2023-04-06T06:21:12;1.20;99.90
52895;DHT22;38759;53.396;6.722;2023-04-06T06:23:38;1.20;99.90
52895;DHT22;38759;53.396;6.722;2023-04-06T06:26:04;1.30;99.90
52895;DHT22;38759;53.396;6.722;2023-04-06T06:28:30;1.40;99.90
52895;DHT22;38759;53.396;6.722;2023-04-06T06:30:56;1.40;99.90
52895;DHT22;38759;53.396;6.722;2023-04-06T06:33:22;1.50;99.90
52895;DHT22;38759;53.396;6.722;2023-04-06T06:35:48;1.50;99.90
52895;DHT22;38759;53.396;6.722;2023-04-06T06:38:14;1.60;99.90
52895;DHT22;38759;53.396;6.722;2023-04-06T06:40:41;1.70;99.90
52895;DHT22;38759;53.396;6.722;2023-04-06T06:43:06;1.70;99.90
52895;DHT22;38759;53.396;6.722;2023-04-06T06:45:32;1.70;99.90
52895;DHT22;38759;53.396;6.722;2023-04-06T06:47:58;1.80;99.90
52895;DHT22;38759;53.396;6.722;2023-04-06T06:50:24;1.90;99.90
52895;DHT22;38759;53.396;6.722;2023-04-06T06:52:50;2.00;99.90
52895;DHT22;38759;53.396;6.722;2023-04-06T06:55:16;2.00;99.90
52895;DHT22;38759;53.396;6.722;2023-04-06T06:57:41;2.10;99.90
52895;DHT22;38759;53.396;6.722;2023-04-06T07:00:12;2.20;99.90
52895;DHT22;38759;53.396;6.722;2023-04-06T07:02:39;2.20;99.90
52895;DHT22;38759;53.396;6.722;2023-04-06T07:05:05;2.30;99.90
52895;DHT22;38759;53.396;6.722;2023-04-06T07:07:34;2.40;99.90
52895;DHT22;38759;53.396;6.722;2023-04-06T07:10:00;2.50;99.90
52895;DHT22;38759;53.396;6.722;2023-04-06T07:12:26;2.60;99.90
52895;DHT22;38759;53.396;6.722;2023-04-06T07:14:52;2.60;99.90
52895;DHT22;38759;53.396;6.722;2023-04-06T07:17:18;2.70;99.90
52895;DHT22;38759;53.396;6.722;2023-04-06T07:19:44;2.80;99.90
52895;DHT22;38759;53.396;6.722;2023-04-06T07:22:11;2.90;99.90
52895;DHT22;38759;53.396;6.722;2023-04-06T07:24:37;3.00;99.90
52895;DHT22;38759;53.396;6.722;2023-04-06T07:27:02;3.20;99.90
52895;DHT22;38759;53.396;6.722;2023-04-06T07:29:28;3.20;99.90
52895;DHT22;38759;53.396;6.722;2023-04-06T07:31:54;3.30;99.90
52895;DHT22;38759;53.396;6.722;2023-04-06T07:34:21;3.40;99.90
52895;DHT22;38759;53.396;6.722;2023-04-06T07:36:47;3.50;99.90
52895;DHT22;38759;53.396;6.722;2023-04-06T07:39:13;3.50;99.90
52895;DHT22;38759;53.396;6.722;2023-04-06T07:41:38;3.70;99.90
52895;DHT22;38759;53.396;6.722;2023-04-06T07:44:04;3.70;99.90
52895;DHT22;38759;53.396;6.722;2023-04-06T07:46:30;3.80;99.90
52895;DHT22;38759;53.396;6.722;2023-04-06T07:48:57;3.90;99.90
52895;DHT22;38759;53.396;6.722;2023-04-06T07:51:23;4.00;99.90
52895;DHT22;38759;53.396;6.722;2023-04-06T07:53:50;4.10;99.90
52895;DHT22;38759;53.396;6.722;2023-04-06T07:56:16;4.30;99.90
52895;DHT22;38759;53.396;6.722;2023-04-06T07:58:42;4.40;99.90
52895;DHT22;38759;53.396;6.722;2023-04-06T08:01:07;4.60;99.90
52895;DHT22;38759;53.396;6.722;2023-04-06T08:03:34;4.80;99.90
52895;DHT22;38759;53.396;6.722;2023-04-06T08:06:00;4.90;99.90
52895;DHT22;38759;53.396;6.722;2023-04-06T08:08:25;5.10;99.90
52895;DHT22;38759;53.396;6.722;2023-04-06T08:10:51;5.20;99.90
52895;DHT22;38759;53.396;6.722;2023-04-06T08:13:17;5.40;99.90
52895;DHT22;38759;53.396;6.722;2023-04-06T08:15:42;5.50;99.90
52895;DHT22;38759;53.396;6.722;2023-04-06T08:18:08;5.60;99.90
52895;DHT22;38759;53.396;6.722;2023-04-06T08:20:35;5.80;99.90
52895;DHT22;38759;53.396;6.722;2023-04-06T08:23:00;5.90;99.90
52895;DHT22;38759;53.396;6.722;2023-04-06T08:25:26;6.00;99.90
52895;DHT22;38759;53.396;6.722;2023-04-06T08:27:52;6.10;99.90
52895;DHT22;38759;53.396;6.722;2023-04-06T08:30:18;6.20;99.90
52895;DHT22;38759;53.396;6.722;2023-04-06T08:32:45;6.30;99.90
52895;DHT22;38759;53.396;6.722;2023-04-06T08:35:11;6.40;99.90
52895;DHT22;38759;53.396;6.722;2023-04-06T08:37:37;6.60;99.90
52895;DHT22;38759;53.396;6.722;2023-04-06T08:40:04;6.70;99.90
52895;DHT22;38759;53.396;6.722;2023-04-06T08:42:33;6.80;99.90
52895;DHT22;38759;53.396;6.722;2023-04-06T08:44:59;7.00;99.90
52895;DHT22;38759;53.396;6.722;2023-04-06T08:47:25;7.10;99.90
52895;DHT22;38759;53.396;6.722;2023-04-06T08:49:53;7.20;99.90
52895;DHT22;38759;53.396;6.722;2023-04-06T08:52:19;7.30;99.90
52895;DHT22;38759;53.396;6.722;2023-04-06T08:54:45;7.40;99.90
52895;DHT22;38759;53.396;6.722;2023-04-06T08:57:11;7.50;99.90
52895;DHT22;38759;53.396;6.722;2023-04-06T08:59:38;7.60;99.90
52895;DHT22;38759;53.396;6.722;2023-04-06T09:02:04;7.70;99.90
52895;DHT22;38759;53.396;6.722;2023-04-06T09:04:32;7.80;99.90
52895;DHT22;38759;53.396;6.722;2023-04-06T09:06:59;8.00;99.90
52895;DHT22;38759;53.396;6.722;2023-04-06T09:09:24;8.10;99.90
52895;DHT22;38759;53.396;6.722;2023-04-06T09:11:51;8.20;99.90
52895;DHT22;38759;53.396;6.722;2023-04-06T09:14:33;8.40;99.90
52895;DHT22;38759;53.396;6.722;2023-04-06T09:16:59;8.50;99.90
52895;DHT22;38759;53.396;6.722;2023-04-06T09:19:24;8.60;99.90
52895;DHT22;38759;53.396;6.722;2023-04-06T09:22:01;8.70;99.90
52895;DHT22;38759;53.396;6.722;2023-04-06T09:24:27;8.80;99.90
52895;DHT22;38759;53.396;6.722;2023-04-06T09:26:53;8.90;99.90
52895;DHT22;38759;53.396;6.722;2023-04-06T09:29:23;9.10;99.90
52895;DHT22;38759;53.396;6.722;2023-04-06T09:31:50;9.20;99.90
52895;DHT22;38759;53.396;6.722;2023-04-06T09:34:22;9.40;99.90
52895;DHT22;38759;53.396;6.722;2023-04-06T09:36:51;9.50;99.90
52895;DHT22;38759;53.396;6.722;2023-04-06T09:39:21;9.70;99.90
52895;DHT22;38759;53.396;6.722;2023-04-06T09:41:50;9.90;99.90
52895;DHT22;38759;53.396;6.722;2023-04-06T09:44:16;10.00;99.90
52895;DHT22;38759;53.396;6.722;2023-04-06T09:46:43;10.20;99.90
52895;DHT22;38759;53.396;6.722;2023-04-06T09:49:11;10.40;99.90
52895;DHT22;38759;53.396;6.722;2023-04-06T09:51:39;10.60;99.90
52895;DHT22;38759;53.396;6.722;2023-04-06T09:54:07;10.80;99.90
52895;DHT22;38759;53.396;6.722;2023-04-06T09:56:43;10.90;99.90
52895;DHT22;38759;53.396;6.722;2023-04-06T09:59:13;11.10;99.90
52895;DHT22;38759;53.396;6.722;2023-04-06T10:01:40;11.30;99.90
52895;DHT22;38759;53.396;6.722;2023-04-06T10:04:36;11.40;99.90
52895;DHT22;38759;53.396;6.722;2023-04-06T10:06:59;11.40;99.90
52895;DHT22;38759;53.396;6.722;2023-04-06T10:09:28;11.50;99.90
52895;DHT22;38759;53.396;6.722;2023-04-06T10:12:04;11.40;99.90
52895;DHT22;38759;53.396;6.722;2023-04-06T10:14:33;11.40;99.90
52895;DHT22;38759;53.396;6.722;2023-04-06T10:17:02;11.30;99.90
52895;DHT22;38759;53.396;6.722;2023-04-06T10:19:34;11.40;99.90
52895;DHT22;38759;53.396;6.722;2023-04-06T10:22:03;11.30;99.90
52895;DHT22;38759;53.396;6.722;2023-04-06T10:24:30;11.30;99.90
52895;DHT22;38759;53.396;6.722;2023-04-06T10:27:03;11.30;99.90
52895;DHT22;38759;53.396;6.722;2023-04-06T10:29:45;11.30;99.90
52895;DHT22;38759;53.396;6.722;2023-04-06T10:32:11;11.30;99.90
52895;DHT22;38759;53.396;6.722;2023-04-06T10:34:37;11.40;99.90
52895;DHT22;38759;53.396;6.722;2023-04-06T10:37:13;11.30;99.90
52895;DHT22;38759;53.396;6.722;2023-04-06T10:39:54;11.30;99.90
52895;DHT22;38759;53.396;6.722;2023-04-06T10:42:24;11.40;99.90
52895;DHT22;38759;53.396;6.722;2023-04-06T10:44:50;11.50;99.90
52895;DHT22;38759;53.396;6.722;2023-04-06T10:47:17;11.50;99.90
52895;DHT22;38759;53.396;6.722;2023-04-06T10:49:45;11.50;99.90
52895;DHT22;38759;53.396;6.722;2023-04-06T10:52:11;11.60;99.90
52895;DHT22;38759;53.396;6.722;2023-04-06T10:54:42;11.60;99.90
52895;DHT22;38759;53.396;6.722;2023-04-06T10:57:09;11.70;99.90
52895;DHT22;38759;53.396;6.722;2023-04-06T10:59:35;11.80;99.90
52895;DHT22;38759;53.396;6.722;2023-04-06T11:02:00;11.80;99.90
52895;DHT22;38759;53.396;6.722;2023-04-06T11:04:26;11.70;99.90
52895;DHT22;38759;53.396;6.722;2023-04-06T11:06:52;11.70;99.90
52895;DHT22;38759;53.396;6.722;2023-04-06T11:09:25;11.60;99.90
52895;DHT22;38759;53.396;6.722;2023-04-06T11:11:51;11.60;99.60
52895;DHT22;38759;53.396;6.722;2023-04-06T11:14:18;11.50;99.50
52895;DHT22;38759;53.396;6.722;2023-04-06T11:16:46;11.40;99.20
52895;DHT22;38759;53.396;6.722;2023-04-06T11:19:14;11.50;99.90
52895;DHT22;38759;53.396;6.722;2023-04-06T11:21:47;11.60;99.90
52895;DHT22;38759;53.396;6.722;2023-04-06T11:24:20;11.70;99.90
52895;DHT22;38759;53.396;6.722;2023-04-06T11:26:57;11.90;99.90
52895;DHT22;38759;53.396;6.722;2023-04-06T11:29:25;12.00;99.90
52895;DHT22;38759;53.396;6.722;2023-04-06T11:31:54;12.10;99.80
52895;DHT22;38759;53.396;6.722;2023-04-06T11:34:24;12.20;99.90
52895;DHT22;38759;53.396;6.722;2023-04-06T11:36:55;12.30;99.90
52895;DHT22;38759;53.396;6.722;2023-04-06T11:39:26;12.10;97.80
52895;DHT22;38759;53.396;6.722;2023-04-06T11:42:00;12.20;98.30
52895;DHT22;38759;53.396;6.722;2023-04-06T11:44:34;12.30;98.40
52895;DHT22;38759;53.396;6.722;2023-04-06T11:47:02;12.40;98.30
52895;DHT22;38759;53.396;6.722;2023-04-06T11:49:32;12.50;98.20
52895;DHT22;38759;53.396;6.722;2023-04-06T11:51:59;12.50;97.90
52895;DHT22;38759;53.396;6.722;2023-04-06T11:54:36;12.70;99.00
52895;DHT22;38759;53.396;6.722;2023-04-06T11:57:03;12.80;97.40
52895;DHT22;38759;53.396;6.722;2023-04-06T11:59:29;13.00;98.40
52895;DHT22;38759;53.396;6.722;2023-04-06T12:01:57;13.00;97.80
52895;DHT22;38759;53.396;6.722;2023-04-06T12:04:22;13.10;97.50
52895;DHT22;38759;53.396;6.722;2023-04-06T12:06:48;13.00;97.50
52895;DHT22;38759;53.396;6.722;2023-04-06T12:09:15;12.80;96.50
52895;DHT22;38759;53.396;6.722;2023-04-06T12:11:40;12.70;96.90
52895;DHT22;38759;53.396;6.722;2023-04-06T12:14:06;12.70;97.20
52895;DHT22;38759;53.396;6.722;2023-04-06T12:16:36;12.70;97.40
52895;DHT22;38759;53.396;6.722;2023-04-06T12:19:01;12.60;96.40
52895;DHT22;38759;53.396;6.722;2023-04-06T12:21:28;12.60;96.90
52895;DHT22;38759;53.396;6.722;2023-04-06T12:23:54;12.60;96.60
52895;DHT22;38759;53.396;6.722;2023-04-06T12:26:20;12.70;96.80
52895;DHT22;38759;53.396;6.722;2023-04-06T12:28:46;12.80;96.40
52895;DHT22;38759;53.396;6.722;2023-04-06T12:31:20;12.80;96.00
52895;DHT22;38759;53.396;6.722;2023-04-06T12:33:49;12.80;96.20
52895;DHT22;38759;53.396;6.722;2023-04-06T12:36:19;13.00;95.70
52895;DHT22;38759;53.396;6.722;2023-04-06T12:38:50;13.10;97.20
52895;DHT22;38759;53.396;6.722;2023-04-06T12:41:17;13.30;97.90
52895;DHT22;38759;53.396;6.722;2023-04-06T12:43:44;13.40;96.80
52895;DHT22;38759;53.396;6.722;2023-04-06T12:46:10;13.30;96.70
52895;DHT22;38759;53.396;6.722;2023-04-06T12:48:36;13.30;96.10
52895;DHT22;38759;53.396;6.722;2023-04-06T12:51:04;13.40;96.30
52895;DHT22;38759;53.396;6.722;2023-04-06T12:53:30;13.50;95.70
52895;DHT22;38759;53.396;6.722;2023-04-06T12:55:56;13.40;96.00
52895;DHT22;38759;53.396;6.722;2023-04-06T12:58:23;13.50;95.60
52895;DHT22;38759;53.396;6.722;2023-04-06T13:00:50;13.60;96.10
52895;DHT22;38759;53.396;6.722;2023-04-06T13:03:17;13.70;95.80
52895;DHT22;38759;53.396;6.722;2023-04-06T13:05:46;13.80;95.90
52895;DHT22;38759;53.396;6.722;2023-04-06T13:08:13;13.80;95.90
52895;DHT22;38759;53.396;6.722;2023-04-06T13:10:50;13.90;96.20
52895;DHT22;38759;53.396;6.722;2023-04-06T13:13:29;13.80;95.40
52895;DHT22;38759;53.396;6.722;2023-04-06T13:16:02;13.70;95.30
52895;DHT22;38759;53.396;6.722;2023-04-06T13:18:29;13.70;95.00
52895;DHT22;38759;53.396;6.722;2023-04-06T13:20:56;13.60;95.70
52895;DHT22;38759;53.396;6.722;2023-04-06T13:23:22;13.60;96.30
52895;DHT22;38759;53.396;6.722;2023-04-06T13:25:48;13.70;96.40
52895;DHT22;38759;53.396;6.722;2023-04-06T13:28:13;13.60;96.20
52895;DHT22;38759;53.396;6.722;2023-04-06T13:30:39;13.60;95.90
52895;DHT22;38759;53.396;6.722;2023-04-06T13:33:05;13.70;95.00
52895;DHT22;38759;53.396;6.722;2023-04-06T13:35:32;13.70;94.70
52895;DHT22;38759;53.396;6.722;2023-04-06T13:37:58;13.60;95.30
52895;DHT22;38759;53.396;6.722;2023-04-06T13:40:24;13.70;95.60
52895;DHT22;38759;53.396;6.722;2023-04-06T13:42:50;13.60;95.30
52895;DHT22;38759;53.396;6.722;2023-04-06T13:45:16;13.70;96.40
52895;DHT22;38759;53.396;6.722;2023-04-06T13:47:41;13.60;96.40
52895;DHT22;38759;53.396;6.722;2023-04-06T13:50:08;13.50;94.90
52895;DHT22;38759;53.396;6.722;2023-04-06T13:52:35;13.40;94.20
52895;DHT22;38759;53.396;6.722;2023-04-06T13:55:01;13.30;95.20
52895;DHT22;38759;53.396;6.722;2023-04-06T13:57:27;13.20;96.30
52895;DHT22;38759;53.396;6.722;2023-04-06T13:59:55;13.10;96.20
52895;DHT22;38759;53.396;6.722;2023-04-06T14:02:21;13.10;96.60
52895;DHT22;38759;53.396;6.722;2023-04-06T14:04:52;13.00;96.40
52895;DHT22;38759;53.396;6.722;2023-04-06T14:07:20;12.90;96.30
52895;DHT22;38759;53.396;6.722;2023-04-06T14:09:46;12.80;95.60
52895;DHT22;38759;53.396;6.722;2023-04-06T14:12:11;12.70;95.60
52895;DHT22;38759;53.396;6.722;2023-04-06T14:14:37;12.70;96.30
52895;DHT22;38759;53.396;6.722;2023-04-06T14:17:03;12.60;95.60
52895;DHT22;38759;53.396;6.722;2023-04-06T14:19:28;12.60;95.80
52895;DHT22;38759;53.396;6.722;2023-04-06T14:21:54;12.50;95.50
52895;DHT22;38759;53.396;6.722;2023-04-06T14:24:21;12.50;95.20
52895;DHT22;38759;53.396;6.722;2023-04-06T14:26:48;12.50;95.30
52895;DHT22;38759;53.396;6.722;2023-04-06T14:29:13;12.50;95.70
52895;DHT22;38759;53.396;6.722;2023-04-06T14:31:39;12.50;95.70
52895;DHT22;38759;53.396;6.722;2023-04-06T14:34:05;12.40;94.50
52895;DHT22;38759;53.396;6.722;2023-04-06T14:36:32;12.40;95.50
52895;DHT22;38759;53.396;6.722;2023-04-06T14:39:05;12.40;95.60
52895;DHT22;38759;53.396;6.722;2023-04-06T14:41:31;12.30;95.60
52895;DHT22;38759;53.396;6.722;2023-04-06T14:43:58;12.30;95.70
52895;DHT22;38759;53.396;6.722;2023-04-06T14:46:23;12.30;95.10
52895;DHT22;38759;53.396;6.722;2023-04-06T14:48:50;12.30;95.50
52895;DHT22;38759;53.396;6.722;2023-04-06T14:51:16;12.30;95.80
52895;DHT22;38759;53.396;6.722;2023-04-06T14:53:42;12.30;96.00
52895;DHT22;38759;53.396;6.722;2023-04-06T14:56:08;12.30;96.00
52895;DHT22;38759;53.396;6.722;2023-04-06T14:58:33;12.30;96.30
52895;DHT22;38759;53.396;6.722;2023-04-06T15:01:01;12.30;96.60
52895;DHT22;38759;53.396;6.722;2023-04-06T15:03:27;12.20;97.00
52895;DHT22;38759;53.396;6.722;2023-04-06T15:05:54;12.20;97.10
52895;DHT22;38759;53.396;6.722;2023-04-06T15:08:21;12.20;96.90
52895;DHT22;38759;53.396;6.722;2023-04-06T15:10:47;12.20;98.10
52895;DHT22;38759;53.396;6.722;2023-04-06T15:13:13;12.10;99.00
52895;DHT22;38759;53.396;6.722;2023-04-06T15:15:40;12.10;99.30
52895;DHT22;38759;53.396;6.722;2023-04-06T15:18:06;12.00;99.70
52895;DHT22;38759;53.396;6.722;2023-04-06T15:20:32;12.00;99.80
52895;DHT22;38759;53.396;6.722;2023-04-06T15:22:57;11.90;99.80
52895;DHT22;38759;53.396;6.722;2023-04-06T15:25:23;11.80;99.90
52895;DHT22;38759;53.396;6.722;2023-04-06T15:27:49;11.70;99.90
52895;DHT22;38759;53.396;6.722;2023-04-06T15:30:15;11.60;99.90
52895;DHT22;38759;53.396;6.722;2023-04-06T15:32:52;11.50;99.90
52895;DHT22;38759;53.396;6.722;2023-04-06T15:35:18;11.50;99.90
52895;DHT22;38759;53.396;6.722;2023-04-06T15:37:44;11.40;99.90